Bogucar, Russia
Current Conditions -  °F | °C
As of 4:30 PM on Saturday 01 Nov 2014 (Local Time) from UUOO Reporting Station
Overcast Overcast  
Wind Chill: 32°   Ceiling: 3600
Heat Index: 39°   Visibility: 6mi
Dew Point: 28°   Wind: 11mph
Humidity: 65%   Direction: 340°NNW
Pressure: 29.94"   Gusts: 18mph
Location:  49.93°N, 40.57°E
Report Text: UUOO 011330Z 34005G08MPS 9999 OVC036 04/M02 Q1014 NOSIG RMK30090070
Loading
Personal Weather Stations






























Interactive Weather Map
Tropical Storm Tracking
New forecast layout! Learn more

10-Day Weather Forecast

Advertisements
Track Severe Weather on mobile